Terminal Aerodrome Forecast
Issued by NWS Duluth, MN

Home | Current Version | Previous Version | Text Only | Print | Product List | Glossary On
Versions: 1 2 3 4 5 6 7 8 9 10 11 12 13 14 15 16 17 18 19 20 21 22 23 24 25 26 27 28 29 30 31 32
000
FTUS43 KDLH 242332
TAFDLH
TAF
KDLH 242332Z 2500/2524 07015KT P6SM SCT050
     FM250400 09005KT P6SM SCT250
     FM250800 10004KT 2SM BR OVC003
     FM251500 11009KT 5SM BR OVC012
     FM252000 12009KT P6SM BKN025=

USA.gov is the U.S. government's official web portal to all federal, state and local government web resources and services.